createdAt,value
2017-02-28T00:00:15.287Z,41.22
2017-02-28T00:01:25.169Z,41.22
2017-02-28T00:02:36.017Z,41.22
2017-02-28T00:03:46.686Z,41.32
2017-02-28T00:04:56.968Z,41.32
2017-02-28T00:06:07.221Z,41.41
2017-02-28T00:07:17.535Z,41.22
2017-02-28T00:08:27.987Z,41.41
2017-02-28T00:09:38.649Z,41.51
2017-02-28T00:10:48.904Z,41.32
2017-02-28T00:11:59.588Z,41.22
2017-02-28T00:13:10.258Z,41.32
2017-02-28T00:14:20.311Z,41.51
2017-02-28T00:15:30.194Z,41.41
2017-02-28T00:16:40.445Z,41.32
2017-02-28T00:17:51.100Z,41.32
2017-02-28T00:19:01.377Z,41.41
2017-02-28T00:20:11.819Z,41.13
2017-02-28T00:21:21.722Z,41.22
2017-02-28T00:22:31.973Z,41.41
2017-02-28T00:23:42.644Z,41.32
2017-02-28T00:24:52.926Z,41.51
2017-02-28T00:26:03.693Z,41.51
2017-02-28T00:27:13.983Z,41.32
2017-02-28T00:28:23.477Z,41.51
2017-02-28T00:29:32.981Z,41.41
2017-02-28T00:30:43.638Z,41.51
2017-02-28T00:31:54.002Z,41.51
2017-02-28T00:33:04.289Z,41.22
2017-02-28T00:34:14.978Z,41.22
2017-02-28T00:35:25.626Z,41.32
2017-02-28T00:36:36.289Z,41.41
2017-02-28T00:37:46.736Z,41.51
2017-02-28T00:38:57.029Z,41.51
2017-02-28T00:40:07.695Z,41.51
2017-02-28T00:41:18.362Z,41.51
2017-02-28T00:42:28.652Z,41.41
2017-02-28T00:43:39.419Z,41.71
2017-02-28T00:44:49.716Z,41.8
2017-02-28T00:46:00.386Z,41.8
2017-02-28T00:47:10.275Z,41.51
2017-02-28T00:48:20.935Z,41.89
2017-02-28T00:49:31.692Z,41.51
2017-02-28T00:50:42.368Z,41.8
2017-02-28T00:51:52.632Z,41.51
2017-02-28T00:53:03.294Z,41.89
2017-02-28T00:54:13.203Z,41.51
2017-02-28T00:55:23.184Z,41.51
2017-02-28T00:56:33.839Z,41.32
2017-02-28T00:57:43.745Z,41.51
2017-02-28T00:58:54.007Z,41.89
2017-02-28T01:00:04.697Z,41.8
2017-02-28T01:01:15.535Z,41.8
2017-02-28T01:02:25.441Z,41.71
2017-02-28T01:03:36.110Z,41.8
2017-02-28T01:04:46.770Z,41.51
2017-02-28T01:05:57.050Z,41.51
2017-02-28T01:07:07.464Z,41.51
2017-02-28T01:08:18.033Z,41.51
2017-02-28T01:09:28.685Z,41.99
2017-02-28T01:10:39.342Z,41.61
2017-02-28T01:11:50.013Z,41.89
2017-02-28T01:13:00.435Z,42.09
2017-02-28T01:14:10.782Z,41.51
2017-02-28T01:15:21.459Z,41.51
2017-02-28T01:16:32.147Z,41.61
2017-02-28T01:17:42.418Z,41.61
2017-02-28T01:18:53.241Z,41.8
2017-02-28T01:20:03.534Z,41.51
2017-02-28T01:21:13.795Z,41.51
2017-02-28T01:22:23.691Z,41.89
2017-02-28T01:23:33.963Z,41.89
2017-02-28T01:24:44.388Z,41.61
2017-02-28T01:25:54.695Z,41.8
2017-02-28T01:27:04.588Z,41.61
2017-02-28T01:28:14.855Z,41.51
2017-02-28T01:29:25.144Z,41.51
2017-02-28T01:30:35.569Z,41.32
2017-02-28T01:31:45.843Z,41.71
2017-02-28T01:32:56.530Z,41.51
2017-02-28T01:34:07.217Z,41.32
2017-02-28T01:35:17.873Z,41.51
2017-02-28T01:36:28.315Z,41.61
2017-02-28T01:37:38.964Z,41.71
2017-02-28T01:38:49.242Z,41.99
2017-02-28T01:39:59.534Z,41.89
2017-02-28T01:41:09.030Z,41.61
2017-02-28T01:42:19.078Z,41.89
2017-02-28T01:43:28.225Z,41.89
2017-02-28T01:44:38.894Z,41.51
2017-02-28T01:45:49.568Z,41.51
2017-02-28T01:46:59.875Z,41.89
2017-02-28T01:48:10.722Z,41.22
2017-02-28T01:49:21.395Z,41.41
2017-02-28T01:50:31.667Z,41.89
2017-02-28T01:51:41.950Z,41.51
2017-02-28T01:52:52.227Z,41.89
2017-02-28T01:54:03.051Z,41.71
2017-02-28T01:55:13.717Z,41.8
2017-02-28T01:56:24.361Z,41.61
2017-02-28T01:57:34.631Z,41.97
2017-02-28T01:58:45.283Z,41.59
2017-02-28T01:59:56.100Z,41.71
2017-02-28T02:01:05.974Z,41.71
2017-02-28T02:02:16.262Z,41.61
2017-02-28T02:03:26.538Z,41.61
2017-02-28T02:04:37.497Z,41.61
2017-02-28T02:05:47.930Z,41.89
2017-02-28T02:06:58.590Z,41.51
2017-02-28T02:08:09.265Z,41.89
2017-02-28T02:09:19.534Z,41.89
2017-02-28T02:10:29.806Z,42.09
2017-02-28T02:11:40.622Z,41.51
2017-02-28T02:12:50.505Z,41.78
2017-02-28T02:14:01.169Z,41.78
2017-02-28T02:15:11.466Z,41.89
2017-02-28T02:16:21.383Z,41.89
2017-02-28T02:17:31.409Z,41.88
2017-02-28T02:18:42.067Z,41.68
2017-02-28T02:19:52.352Z,41.49
2017-02-28T02:21:03.016Z,41.49
2017-02-28T02:22:13.672Z,41.32
2017-02-28T02:23:24.513Z,41.49
2017-02-28T02:24:34.788Z,41.3
2017-02-28T02:25:45.049Z,41.51
2017-02-28T02:26:55.323Z,41.39
2017-02-28T02:28:05.595Z,41.49
2017-02-28T02:29:16.346Z,41.49
2017-02-28T02:30:27.003Z,41.97
2017-02-28T02:31:36.926Z,41.49
2017-02-28T02:32:47.215Z,41.88
2017-02-28T02:33:57.903Z,41.49
2017-02-28T02:35:08.672Z,41.49
2017-02-28T02:36:19.339Z,41.49
2017-02-28T02:37:29.594Z,41.39
2017-02-28T02:38:39.881Z,41.3
2017-02-28T02:39:50.163Z,41.49
2017-02-28T02:41:00.925Z,41.2
2017-02-28T02:42:11.578Z,41.49
2017-02-28T02:43:22.225Z,41.49
2017-02-28T02:44:32.898Z,41.49
2017-02-28T02:45:43.553Z,41.49
2017-02-28T02:46:53.958Z,41.59
2017-02-28T02:48:04.621Z,41.49
2017-02-28T02:49:14.126Z,41.49
2017-02-28T02:50:24.001Z,41.49
2017-02-28T02:51:34.257Z,41.49
2017-02-28T02:52:44.636Z,41.68
2017-02-28T02:53:55.303Z,41.88
2017-02-28T02:55:05.201Z,41.39
2017-02-28T02:56:15.867Z,41.88
2017-02-28T02:57:25.744Z,41.49
2017-02-28T02:58:36.541Z,41.3
2017-02-28T02:59:47.221Z,41.3
2017-02-28T03:00:57.521Z,41.68
2017-02-28T03:02:07.428Z,41.49
2017-02-28T03:03:18.099Z,41.3
2017-02-28T03:04:28.914Z,41.68
2017-02-28T03:05:39.631Z,42.07
2017-02-28T03:06:50.567Z,41.49
2017-02-28T03:08:00.838Z,41.11
2017-02-28T03:09:11.108Z,41.39
2017-02-28T03:10:21.521Z,41.49
2017-02-28T03:11:32.168Z,41.3
2017-02-28T03:12:42.442Z,41.3
2017-02-28T03:13:52.329Z,41.39
2017-02-28T03:15:02.610Z,41.49
2017-02-28T03:16:13.645Z,41.11
2017-02-28T03:17:24.321Z,41.11
2017-02-28T03:18:33.807Z,41.39
2017-02-28T03:19:44.503Z,41.39
2017-02-28T03:20:55.165Z,41.39
2017-02-28T03:22:05.185Z,41.11
2017-02-28T03:23:15.079Z,41.3
2017-02-28T03:24:24.205Z,41.3
2017-02-28T03:25:34.882Z,41.49
2017-02-28T03:26:44.749Z,41.2
2017-02-28T03:27:55.552Z,41.2
2017-02-28T03:29:06.212Z,41.39
2017-02-28T03:30:16.882Z,41.2
2017-02-28T03:31:27.149Z,41.2
2017-02-28T03:32:37.436Z,41.39
2017-02-28T03:33:47.861Z,41.2
2017-02-28T03:34:58.127Z,41.3
2017-02-28T03:36:08.793Z,41.2
2017-02-28T03:37:19.453Z,41.39
2017-02-28T03:38:30.126Z,41.3
2017-02-28T03:39:40.940Z,41.11
2017-02-28T03:40:51.220Z,41.3
2017-02-28T03:42:01.120Z,41.2
2017-02-28T03:43:10.632Z,41.2
2017-02-28T03:44:20.543Z,41.11
2017-02-28T03:45:30.969Z,41.3
2017-02-28T03:46:41.607Z,41.3
2017-02-28T03:47:51.488Z,41.3
2017-02-28T03:49:02.147Z,41.11
2017-02-28T03:50:12.803Z,41.11
2017-02-28T03:51:23.220Z,41.3
2017-02-28T03:52:33.500Z,41.3
2017-02-28T03:53:43.823Z,41.2
2017-02-28T03:54:53.337Z,41.2
2017-02-28T03:56:03.617Z,41.2
2017-02-28T03:57:13.745Z,41.11
2017-02-28T03:58:24.410Z,41.11
2017-02-28T03:59:34.688Z,41.11
2017-02-28T04:00:44.955Z,41.11
2017-02-28T04:01:55.644Z,41.2
2017-02-28T04:03:06.068Z,41.11
2017-02-28T04:04:16.732Z,41.11
2017-02-28T04:05:27.405Z,41.2
2017-02-28T04:06:37.325Z,41.2
2017-02-28T04:07:47.603Z,41.2
2017-02-28T04:08:58.027Z,41.11
2017-02-28T04:10:08.691Z,41.01
2017-02-28T04:11:19.348Z,41.2
2017-02-28T04:12:29.625Z,41.11
2017-02-28T04:13:39.891Z,41.01
2017-02-28T04:14:50.743Z,41.11
2017-02-28T04:16:01.035Z,41.01
2017-02-28T04:17:10.949Z,41.01
2017-02-28T04:18:21.207Z,41.01
2017-02-28T04:19:31.855Z,41.11
2017-02-28T04:20:42.768Z,41.11
2017-02-28T04:21:53.049Z,40.91
2017-02-28T04:23:03.728Z,41.01
2017-02-28T04:24:14.000Z,41.2
2017-02-28T04:25:24.256Z,41.01
2017-02-28T04:26:35.075Z,41.01
2017-02-28T04:27:45.753Z,40.91
2017-02-28T04:28:56.019Z,41.11
2017-02-28T04:30:05.543Z,41.01
2017-02-28T04:31:15.041Z,40.91
2017-02-28T04:32:24.678Z,41.01
2017-02-28T04:33:34.948Z,40.91
2017-02-28T04:34:45.261Z,40.72
2017-02-28T04:35:55.526Z,40.81
2017-02-28T04:37:06.213Z,40.91
2017-02-28T04:38:16.803Z,40.81
2017-02-28T04:39:27.362Z,40.91
2017-02-28T04:40:37.645Z,41.01
2017-02-28T04:41:47.561Z,40.81
2017-02-28T04:42:58.239Z,40.81
2017-02-28T04:44:08.811Z,40.91
2017-02-28T04:45:19.081Z,40.81
2017-02-28T04:46:29.341Z,40.81
2017-02-28T04:47:39.598Z,40.81
2017-02-28T04:48:50.279Z,40.81
2017-02-28T04:50:01.241Z,40.81
2017-02-28T04:51:10.750Z,41.01
2017-02-28T04:52:21.028Z,40.81
2017-02-28T04:53:31.690Z,41.01
2017-02-28T04:54:41.583Z,40.91
2017-02-28T04:55:51.958Z,40.91
2017-02-28T04:57:02.604Z,40.91
2017-02-28T04:58:13.283Z,40.91
2017-02-28T04:59:22.763Z,40.91
2017-02-28T05:00:33.154Z,40.91
2017-02-28T05:01:43.913Z,40.91
2017-02-28T05:02:54.576Z,40.91
2017-02-28T05:04:05.236Z,40.91
2017-02-28T05:05:15.134Z,40.91
2017-02-28T05:06:25.428Z,40.91
2017-02-28T05:07:35.395Z,40.81
2017-02-28T05:08:45.682Z,40.91
2017-02-28T05:09:55.593Z,40.91
2017-02-28T05:11:05.882Z,41.01
2017-02-28T05:12:16.153Z,41.11
2017-02-28T05:13:26.891Z,40.81
2017-02-28T05:14:37.575Z,40.81
2017-02-28T05:15:47.459Z,40.81
2017-02-28T05:16:58.157Z,40.81
2017-02-28T05:18:08.804Z,40.91
2017-02-28T05:19:19.180Z,40.81
2017-02-28T05:20:29.457Z,40.72
2017-02-28T05:21:39.729Z,40.91
2017-02-28T05:22:49.994Z,40.63
2017-02-28T05:24:00.670Z,40.91
2017-02-28T05:25:10.710Z,40.43
2017-02-28T05:26:20.222Z,40.63
2017-02-28T05:27:30.144Z,40.7
2017-02-28T05:28:40.830Z,40.81
2017-02-28T05:29:51.538Z,40.53
2017-02-28T05:31:01.784Z,40.43
2017-02-28T05:32:12.082Z,40.72
2017-02-28T05:33:22.361Z,40.53
2017-02-28T05:34:32.648Z,40.72
2017-02-28T05:35:42.918Z,40.63
2017-02-28T05:36:53.355Z,40.63
2017-02-28T05:38:04.021Z,40.43
2017-02-28T05:39:14.951Z,40.53
2017-02-28T05:40:25.620Z,40.43
2017-02-28T05:41:36.274Z,40.72
2017-02-28T05:42:46.694Z,40.34
2017-02-28T05:43:56.606Z,40.34
2017-02-28T05:45:06.904Z,40.34
2017-02-28T05:46:17.170Z,39.95
2017-02-28T05:47:27.848Z,39.86
2017-02-28T05:48:38.746Z,39.68
2017-02-28T05:49:49.015Z,39.2
2017-02-28T05:50:59.693Z,39.49
2017-02-28T05:52:09.979Z,39.49
2017-02-28T05:53:19.869Z,38.91
2017-02-28T05:54:30.301Z,38.81
2017-02-28T05:55:40.957Z,39.2
2017-02-28T05:56:51.259Z,39.29
2017-02-28T05:58:01.927Z,39.22
2017-02-28T05:59:12.596Z,38.74
2017-02-28T06:00:23.392Z,38.74
2017-02-28T06:01:33.276Z,38.54
2017-02-28T06:02:43.925Z,38.54
2017-02-28T06:03:54.220Z,38.54
2017-02-28T06:05:04.878Z,38.35
2017-02-28T06:06:15.688Z,38.16
2017-02-28T06:07:26.369Z,38.26
2017-02-28T06:08:36.680Z,38.37
2017-02-28T06:09:47.351Z,38.37
2017-02-28T06:10:57.261Z,38.37
2017-02-28T06:12:08.085Z,38.18
2017-02-28T06:13:17.987Z,38.08
2017-02-28T06:14:28.253Z,37.98
2017-02-28T06:15:38.935Z,37.98
2017-02-28T06:16:49.618Z,37.79
2017-02-28T06:17:58.864Z,37.7
2017-02-28T06:19:08.758Z,37.7
2017-02-28T06:20:19.439Z,37.7
2017-02-28T06:21:29.714Z,37.7
2017-02-28T06:22:40.000Z,37.89
2017-02-28T06:23:50.422Z,37.71
2017-02-28T06:25:00.690Z,37.71
2017-02-28T06:26:10.569Z,37.91
2017-02-28T06:27:20.443Z,37.91
2017-02-28T06:28:30.716Z,37.71
2017-02-28T06:29:41.536Z,37.71
2017-02-28T06:30:52.193Z,37.52
2017-02-28T06:32:02.848Z,37.52
2017-02-28T06:33:13.536Z,37.43
2017-02-28T06:34:23.412Z,37.33
2017-02-28T06:35:33.828Z,37.33
2017-02-28T06:36:44.104Z,37.25
2017-02-28T06:37:54.369Z,37.25
2017-02-28T06:39:05.042Z,37.13
2017-02-28T06:40:14.947Z,37.15
2017-02-28T06:41:24.984Z,36.96
2017-02-28T06:42:35.661Z,37.25
2017-02-28T06:43:46.327Z,37.15
2017-02-28T06:44:56.624Z,36.87
2017-02-28T06:46:06.914Z,37.15
2017-02-28T06:47:17.740Z,37.15
2017-02-28T06:48:28.424Z,37.25
2017-02-28T06:49:39.103Z,37.06
2017-02-28T06:50:49.786Z,37.35
2017-02-28T06:52:00.454Z,37.35
2017-02-28T06:53:10.503Z,37.15
2017-02-28T06:54:20.431Z,37.06
2017-02-28T06:55:29.980Z,37.06
2017-02-28T06:56:40.245Z,36.96
2017-02-28T06:57:50.561Z,36.96
2017-02-28T06:59:00.237Z,37.25
2017-02-28T07:00:11.404Z,37.35
2017-02-28T07:01:20.887Z,37.54
2017-02-28T07:02:31.193Z,37.63
2017-02-28T07:03:41.478Z,37.63
2017-02-28T07:04:51.876Z,37.71
2017-02-28T07:06:02.166Z,37.81
2017-02-28T07:07:12.858Z,37.71
2017-02-28T07:08:22.763Z,37.81
2017-02-28T07:09:33.052Z,37.91
2017-02-28T07:10:43.895Z,38.1
2017-02-28T07:11:54.160Z,38.37
2017-02-28T07:13:04.046Z,38.37
2017-02-28T07:14:14.736Z,38.37
2017-02-28T07:15:25.022Z,38.28
2017-02-28T07:16:35.417Z,38.18
2017-02-28T07:17:45.700Z,38.37
2017-02-28T07:18:55.594Z,38.28
2017-02-28T07:20:05.866Z,38.18
2017-02-28T07:21:16.426Z,38.66
2017-02-28T07:22:27.199Z,38.37
2017-02-28T07:23:37.866Z,38.28
2017-02-28T07:24:48.533Z,38.18
2017-02-28T07:25:58.842Z,38.18
2017-02-28T07:27:09.171Z,38.26
2017-02-28T07:28:18.785Z,38.35
2017-02-28T07:29:29.074Z,38.28
2017-02-28T07:30:39.720Z,38.37
2017-02-28T07:31:50.404Z,38.37
2017-02-28T07:33:00.699Z,38.28
2017-02-28T07:34:11.128Z,38.37
2017-02-28T07:35:21.818Z,38.06
2017-02-28T07:36:32.503Z,37.98
2017-02-28T07:37:42.838Z,37.96
2017-02-28T07:38:53.120Z,38.08
2017-02-28T07:40:03.957Z,38.08
2017-02-28T07:41:13.481Z,38.08
2017-02-28T07:42:23.768Z,38.26
2017-02-28T07:43:34.070Z,38.16
2017-02-28T07:44:44.753Z,38.35
2017-02-28T07:45:55.195Z,38.26
2017-02-28T07:47:05.908Z,38.45
2017-02-28T07:48:16.579Z,38.35
2017-02-28T07:49:27.263Z,38.45
2017-02-28T07:50:37.921Z,38.35
2017-02-28T07:51:48.743Z,38.45
2017-02-28T07:52:58.665Z,38.26
2017-02-28T07:54:08.959Z,38.26
2017-02-28T07:55:19.639Z,38.24
2017-02-28T07:56:29.912Z,38.24
2017-02-28T07:57:40.320Z,38.33
2017-02-28T07:58:50.273Z,38.24
2017-02-28T08:00:00.944Z,38.04
2017-02-28T08:01:11.630Z,38.14
2017-02-28T08:02:21.916Z,38.24
2017-02-28T08:03:32.334Z,38.33
2017-02-28T08:04:42.620Z,38.24
2017-02-28T08:05:53.302Z,38.43
2017-02-28T08:07:04.004Z,38.04
2017-02-28T08:08:14.303Z,37.95
2017-02-28T08:09:24.769Z,37.85
2017-02-28T08:10:34.652Z,37.66
2017-02-28T08:11:44.942Z,37.56
2017-02-28T08:12:55.260Z,37.77
2017-02-28T08:14:05.568Z,37.87
2017-02-28T08:15:15.609Z,37.58
2017-02-28T08:16:25.886Z,37.48
2017-02-28T08:17:35.817Z,37.48
2017-02-28T08:18:46.097Z,37.29
2017-02-28T08:19:56.682Z,37.39
2017-02-28T08:21:07.500Z,37.19
2017-02-28T08:22:18.195Z,37.19
2017-02-28T08:23:28.905Z,36.81
2017-02-28T08:24:38.822Z,37.1
2017-02-28T08:25:49.131Z,37.19
2017-02-28T08:26:59.970Z,36.81
2017-02-28T08:28:10.662Z,36.91
2017-02-28T08:29:20.941Z,37.01
2017-02-28T08:30:31.236Z,36.91
2017-02-28T08:31:40.349Z,36.81
2017-02-28T08:32:51.303Z,36.81
2017-02-28T08:34:01.968Z,36.93
2017-02-28T08:35:12.695Z,36.73
2017-02-28T08:36:22.998Z,36.73
2017-02-28T08:37:32.519Z,36.73
2017-02-28T08:38:42.983Z,36.54
2017-02-28T08:39:53.645Z,36.44
2017-02-28T08:41:03.909Z,36.25
2017-02-28T08:42:14.580Z,36.35
2017-02-28T08:43:24.462Z,36.25
2017-02-28T08:44:35.286Z,36.25
2017-02-28T08:45:45.572Z,35.96
2017-02-28T08:46:55.504Z,35.86
2017-02-28T08:48:05.448Z,35.67
2017-02-28T08:49:16.120Z,35.58
2017-02-28T08:50:26.924Z,35.59
2017-02-28T08:51:37.205Z,35.5
2017-02-28T08:52:47.856Z,35.4
2017-02-28T08:53:57.767Z,35.21
2017-02-28T08:55:08.054Z,35.21
2017-02-28T08:56:18.874Z,35.21
2017-02-28T08:57:29.147Z,35.21
2017-02-28T08:58:39.042Z,35.03
2017-02-28T08:59:49.696Z,35.22
2017-02-28T09:01:00.395Z,35.03
2017-02-28T09:02:09.677Z,35.22
2017-02-28T09:03:20.371Z,35.13
2017-02-28T09:04:30.244Z,34.84
2017-02-28T09:05:40.542Z,34.84
2017-02-28T09:06:51.197Z,34.74
2017-02-28T09:08:01.973Z,34.74
2017-02-28T09:09:11.877Z,34.55
2017-02-28T09:10:21.786Z,34.45
2017-02-28T09:11:32.452Z,34.64
2017-02-28T09:12:42.363Z,34.74
2017-02-28T09:13:52.392Z,34.64
2017-02-28T09:15:03.071Z,34.55
2017-02-28T09:16:13.350Z,34.64
2017-02-28T09:17:23.647Z,34.64
2017-02-28T09:18:34.321Z,34.45
2017-02-28T09:19:44.735Z,34.47
2017-02-28T09:20:55.829Z,34.56
2017-02-28T09:22:05.810Z,34.66
2017-02-28T09:23:16.750Z,34.55
2017-02-28T09:24:26.628Z,34.76
2017-02-28T09:25:37.037Z,35.32
2017-02-28T09:26:47.313Z,35.13
2017-02-28T09:27:57.993Z,35.22
2017-02-28T09:29:07.910Z,35.22
2017-02-28T09:30:18.203Z,35.13
2017-02-28T09:31:28.592Z,35.22
2017-02-28T09:32:38.885Z,35.03
2017-02-28T09:33:49.550Z,35.03
2017-02-28T09:35:00.246Z,34.94
2017-02-28T09:36:10.526Z,35.13
2017-02-28T09:37:20.974Z,35.22
2017-02-28T09:38:31.251Z,35.13
2017-02-28T09:39:41.140Z,35.22
2017-02-28T09:40:51.412Z,35.22
2017-02-28T09:42:00.904Z,35.22
2017-02-28T09:43:11.322Z,35.22
2017-02-28T09:44:21.993Z,35.22
2017-02-28T09:45:32.285Z,35.52
2017-02-28T09:46:42.590Z,35.61
2017-02-28T09:47:52.492Z,35.52
2017-02-28T09:49:02.545Z,35.61
2017-02-28T09:50:12.434Z,35.69
2017-02-28T09:51:22.692Z,35.5
2017-02-28T09:52:33.339Z,35.4
2017-02-28T09:53:43.609Z,35.42
2017-02-28T09:54:54.039Z,35.4
2017-02-28T09:56:04.330Z,35.4
2017-02-28T09:57:14.206Z,35.5
2017-02-28T09:58:24.494Z,35.5
2017-02-28T09:59:34.405Z,35.4
2017-02-28T10:00:44.480Z,35.3
2017-02-28T10:01:54.770Z,35.3
2017-02-28T10:03:05.051Z,35.4
2017-02-28T10:04:14.953Z,35.4
2017-02-28T10:05:25.658Z,35.4
2017-02-28T10:06:35.723Z,35.5
2017-02-28T10:07:46.076Z,35.59
2017-02-28T10:08:55.976Z,35.5
2017-02-28T10:10:06.318Z,35.59
2017-02-28T10:11:16.757Z,35.88
2017-02-28T10:12:27.564Z,35.59
2017-02-28T10:13:37.475Z,35.5
2017-02-28T10:14:48.456Z,35.5
2017-02-28T10:15:58.360Z,35.5
2017-02-28T10:17:09.029Z,35.5
2017-02-28T10:18:19.802Z,35.5
2017-02-28T10:19:30.075Z,35.4
2017-02-28T10:20:40.727Z,35.4
2017-02-28T10:21:51.016Z,35.4
2017-02-28T10:23:01.692Z,35.4
2017-02-28T10:24:12.343Z,35.5
2017-02-28T10:25:21.827Z,35.4
2017-02-28T10:26:32.132Z,35.5
2017-02-28T10:27:42.030Z,35.5
2017-02-28T10:28:51.923Z,35.5
2017-02-28T10:30:02.740Z,35.5
2017-02-28T10:31:12.619Z,35.4
2017-02-28T10:32:23.279Z,35.3
2017-02-28T10:33:33.610Z,35.4
2017-02-28T10:34:43.507Z,35.4
2017-02-28T10:35:53.946Z,35.4
2017-02-28T10:37:04.238Z,35.59
2017-02-28T10:38:14.510Z,35.4
2017-02-28T10:39:25.170Z,35.21
2017-02-28T10:40:35.468Z,35.21
2017-02-28T10:41:46.571Z,35.21
2017-02-28T10:42:56.464Z,35.02
2017-02-28T10:44:07.132Z,34.92
2017-02-28T10:45:17.407Z,35.02
2017-02-28T10:46:27.684Z,35.02
2017-02-28T10:47:38.532Z,35.3
2017-02-28T10:48:48.469Z,35.22
2017-02-28T10:49:59.147Z,35.32
2017-02-28T10:51:09.052Z,35.22
2017-02-28T10:52:19.450Z,34.84
2017-02-28T10:53:29.611Z,34.55
2017-02-28T10:54:39.895Z,34.64
2017-02-28T10:55:49.443Z,34.64
2017-02-28T10:56:59.335Z,34.55
2017-02-28T10:58:09.612Z,34.55
2017-02-28T10:59:20.051Z,34.45
2017-02-28T11:00:29.932Z,34.45
2017-02-28T11:01:40.879Z,34.36
2017-02-28T11:02:50.390Z,34.45
2017-02-28T11:04:01.106Z,34.45
2017-02-28T11:05:11.164Z,34.55
2017-02-28T11:06:21.424Z,34.84
2017-02-28T11:07:32.082Z,34.74
2017-02-28T11:08:41.986Z,34.26
2017-02-28T11:09:51.882Z,34.64
2017-02-28T11:11:02.265Z,34.26
2017-02-28T11:12:12.934Z,34.16
2017-02-28T11:13:23.292Z,34.26
2017-02-28T11:14:34.005Z,34.36
2017-02-28T11:15:43.514Z,34.55
2017-02-28T11:16:53.891Z,34.56
2017-02-28T11:18:04.573Z,34.38
2017-02-28T11:19:15.269Z,34.28
2017-02-28T11:20:25.159Z,34.28
2017-02-28T11:21:35.056Z,34.28
2017-02-28T11:22:45.057Z,34.28
2017-02-28T11:23:55.721Z,34.28
2017-02-28T11:25:06.427Z,34.56
2017-02-28T11:26:16.689Z,34.47
2017-02-28T11:27:26.981Z,34.26
2017-02-28T11:28:36.974Z,34.36
2017-02-28T11:29:47.647Z,35.22
2017-02-28T11:30:57.949Z,35.11
2017-02-28T11:32:08.616Z,35.59
2017-02-28T11:33:19.285Z,35.96
2017-02-28T11:34:30.065Z,36.35
2017-02-28T11:35:40.981Z,36.71
2017-02-28T11:36:50.882Z,37.01
2017-02-28T11:38:01.200Z,37.08
2017-02-28T11:39:11.883Z,37.18
2017-02-28T11:40:22.333Z,37.64
2017-02-28T11:41:33.060Z,37.74
2017-02-28T11:42:43.348Z,37.74
2017-02-28T11:43:54.021Z,37.72
2017-02-28T11:45:04.720Z,37.81
2017-02-28T11:46:15.536Z,38.1
2017-02-28T11:47:25.817Z,38.2
2017-02-28T11:48:36.098Z,38.37
2017-02-28T11:49:46.380Z,38.09
2017-02-28T11:50:56.703Z,38.18
2017-02-28T11:52:07.442Z,38.18
2017-02-28T11:53:18.012Z,38.18
2017-02-28T11:54:27.916Z,38.09
2017-02-28T11:55:37.820Z,38.54
2017-02-28T11:56:48.527Z,38.54
2017-02-28T11:57:58.195Z,38.45
2017-02-28T11:59:08.100Z,38.54
2017-02-28T12:00:18.784Z,38.91
2017-02-28T12:01:29.072Z,39.2
2017-02-28T12:02:39.347Z,39.11
2017-02-28T12:03:49.726Z,38.81
2017-02-28T12:04:59.607Z,38.91
2017-02-28T12:06:10.282Z,38.81
2017-02-28T12:07:20.969Z,38.99
2017-02-28T12:08:30.849Z,39.18
2017-02-28T12:09:40.902Z,39.28
2017-02-28T12:10:51.569Z,39.18
2017-02-28T12:12:01.502Z,39.08
2017-02-28T12:13:12.193Z,39.08
2017-02-28T12:14:22.086Z,39.37
2017-02-28T12:15:33.889Z,39.06
2017-02-28T12:16:44.567Z,38.96
2017-02-28T12:17:55.264Z,38.78
2017-02-28T12:19:05.942Z,38.78
2017-02-28T12:20:15.819Z,38.87
2017-02-28T12:21:26.247Z,38.68
2017-02-28T12:22:36.954Z,38.87
2017-02-28T12:23:47.248Z,38.68
2017-02-28T12:24:57.954Z,39.26
2017-02-28T12:26:08.603Z,38.39
2017-02-28T12:27:19.071Z,38.01
2017-02-28T12:28:29.738Z,38.01
2017-02-28T12:29:40.409Z,37.55
2017-02-28T12:30:49.922Z,37.45
2017-02-28T12:32:00.607Z,37.45
2017-02-28T12:33:11.408Z,37.64
2017-02-28T12:34:22.064Z,37.64
2017-02-28T12:35:31.975Z,37.84
2017-02-28T12:36:41.882Z,37.45
2017-02-28T12:37:52.567Z,37.91
2017-02-28T12:39:03.389Z,38.2
2017-02-28T12:40:14.344Z,38.09
2017-02-28T12:41:25.589Z,38.37
2017-02-28T12:42:36.731Z,38.37
2017-02-28T12:43:46.315Z,38.56
2017-02-28T12:44:56.831Z,38.56
2017-02-28T12:46:07.125Z,38.56
2017-02-28T12:47:17.011Z,38.47
2017-02-28T12:48:26.908Z,38.56
2017-02-28T12:49:37.171Z,38.66
2017-02-28T12:50:46.819Z,39.03
2017-02-28T12:51:56.701Z,39.22
2017-02-28T12:53:06.597Z,39.12
2017-02-28T12:54:17.298Z,39.12
2017-02-28T12:55:27.965Z,38.93
2017-02-28T12:56:38.811Z,38.45
2017-02-28T12:57:49.464Z,38.74
2017-02-28T12:59:00.128Z,39.03
2017-02-28T13:00:11.086Z,39.03
2017-02-28T13:01:21.764Z,38.54
2017-02-28T13:02:31.409Z,38.35
2017-02-28T13:03:41.301Z,38.26
2017-02-28T13:04:52.004Z,38.16
2017-02-28T13:06:02.722Z,38.07
2017-02-28T13:07:13.280Z,38.16
2017-02-28T13:08:24.793Z,37.87
2017-02-28T13:09:34.775Z,37.68
2017-02-28T13:10:44.277Z,37.59
2017-02-28T13:11:54.924Z,37.59
2017-02-28T13:13:05.212Z,37.59
2017-02-28T13:14:15.646Z,37.59
2017-02-28T13:15:25.561Z,37.51
2017-02-28T13:16:35.853Z,37.4
2017-02-28T13:17:45.764Z,37.32
2017-02-28T13:18:55.656Z,37.11
2017-02-28T13:20:06.076Z,36.93
2017-02-28T13:21:16.350Z,37.03
2017-02-28T13:22:26.634Z,37.13
2017-02-28T13:23:36.938Z,36.84
2017-02-28T13:24:47.219Z,36.93
2017-02-28T13:25:57.270Z,37.01
2017-02-28T13:27:07.129Z,37.03
2017-02-28T13:28:17.836Z,37.11
2017-02-28T13:29:28.108Z,37.2
2017-02-28T13:30:37.995Z,37.01
2017-02-28T13:31:48.420Z,36.82
2017-02-28T13:32:58.689Z,36.65
2017-02-28T13:34:09.331Z,36.07
2017-02-28T13:35:51.293Z,35.88
2017-02-28T13:37:02.507Z,35.59
2017-02-28T13:38:14.218Z,35.42
2017-02-28T13:39:24.105Z,35.32
2017-02-28T13:40:34.019Z,35.13
2017-02-28T13:41:44.683Z,35.03
2017-02-28T13:42:55.604Z,35.03
2017-02-28T13:44:06.269Z,34.84
2017-02-28T13:45:16.571Z,35.13
2017-02-28T13:46:27.241Z,34.94
2017-02-28T13:47:37.526Z,35.03
2017-02-28T13:48:47.049Z,34.55
2017-02-28T13:49:57.734Z,34.45
2017-02-28T13:51:07.652Z,34.45
2017-02-28T13:52:17.543Z,34.65
2017-02-28T13:53:27.832Z,34.36
2017-02-28T13:54:38.219Z,34.75
2017-02-28T13:55:48.125Z,34.75
2017-02-28T13:56:58.031Z,34.27
2017-02-28T13:58:08.302Z,34.27
2017-02-28T13:59:18.604Z,34.36
2017-02-28T14:00:29.416Z,35.03
2017-02-28T14:01:39.299Z,34.84
2017-02-28T14:02:49.589Z,35.11
2017-02-28T14:03:59.896Z,35.21
2017-02-28T14:05:10.167Z,35.3
2017-02-28T14:06:19.914Z,35.49
2017-02-28T14:07:30.593Z,35.97
2017-02-28T14:08:41.297Z,36.05
2017-02-28T14:09:51.988Z,36.44
2017-02-28T14:11:02.924Z,36.44
2017-02-28T14:12:13.364Z,36.53
2017-02-28T14:13:23.643Z,36.53
2017-02-28T14:14:33.528Z,36.82
2017-02-28T14:15:43.827Z,36.72
2017-02-28T14:16:54.524Z,36.71
2017-02-28T14:18:04.299Z,36.8
2017-02-28T14:19:14.993Z,36.8
2017-02-28T14:20:25.667Z,37.18
2017-02-28T14:21:35.161Z,37.09
2017-02-28T14:22:45.456Z,37.28
2017-02-28T14:23:55.279Z,37.38
2017-02-28T14:25:05.201Z,37.36
2017-02-28T14:26:15.516Z,37.26
2017-02-28T14:27:25.424Z,37.16
2017-02-28T14:28:36.099Z,36.98
2017-02-28T14:29:47.479Z,36.98
2017-02-28T14:30:57.424Z,36.98
2017-02-28T14:32:07.735Z,37.07
2017-02-28T14:33:18.400Z,37.07
2017-02-28T14:34:28.297Z,37.36
2017-02-28T14:35:38.312Z,37.36
2017-02-28T14:36:48.969Z,37.36
2017-02-28T14:37:59.636Z,37.26
2017-02-28T14:39:09.909Z,37.26
2017-02-28T14:40:20.594Z,36.98
2017-02-28T14:41:31.410Z,36.98
2017-02-28T14:42:41.707Z,36.59
2017-02-28T14:43:51.969Z,36.98
2017-02-28T14:45:02.655Z,36.88
2017-02-28T14:46:12.549Z,36.88
2017-02-28T14:47:23.468Z,36.88
2017-02-28T14:48:33.337Z,36.79
2017-02-28T14:49:43.602Z,36.79
2017-02-28T14:50:54.283Z,37.07
2017-02-28T14:52:04.575Z,36.98
2017-02-28T14:53:15.201Z,37.16
2017-02-28T14:54:25.491Z,36.98
2017-02-28T14:55:36.159Z,37.16
2017-02-28T14:56:46.430Z,37.07
2017-02-28T14:57:56.731Z,37.07
2017-02-28T14:59:09.057Z,36.98
2017-02-28T15:00:20.912Z,36.88
2017-02-28T15:01:31.571Z,36.4
2017-02-28T15:02:41.836Z,35.65
2017-02-28T15:03:52.503Z,35
2017-02-28T15:05:03.322Z,34.42
2017-02-28T15:06:13.589Z,34.34
2017-02-28T15:07:23.875Z,33.77
2017-02-28T15:08:33.774Z,33.31
2017-02-28T15:09:44.040Z,33.31
2017-02-28T15:10:54.847Z,33.03